sensor_id;sensor_type;location;lat;lon;timestamp;P1;durP1;ratioP1;P2;durP2;ratioP2
19739;SDS011;10027;51.066;13.768;2023-08-21T00:00:17;5.30;;;4.33;;
19739;SDS011;10027;51.066;13.768;2023-08-21T00:02:45;6.40;;;5.10;;
19739;SDS011;10027;51.066;13.768;2023-08-21T00:05:12;5.30;;;4.63;;
19739;SDS011;10027;51.066;13.768;2023-08-21T00:07:39;6.00;;;4.80;;
19739;SDS011;10027;51.066;13.768;2023-08-21T00:10:07;6.43;;;5.00;;
19739;SDS011;10027;51.066;13.768;2023-08-21T00:12:36;4.97;;;4.47;;
19739;SDS011;10027;51.066;13.768;2023-08-21T00:15:04;5.33;;;4.83;;
19739;SDS011;10027;51.066;13.768;2023-08-21T00:17:31;5.13;;;4.60;;
19739;SDS011;10027;51.066;13.768;2023-08-21T00:19:59;5.87;;;4.60;;
19739;SDS011;10027;51.066;13.768;2023-08-21T00:22:26;5.90;;;4.80;;
19739;SDS011;10027;51.066;13.768;2023-08-21T00:24:53;5.20;;;4.70;;
19739;SDS011;10027;51.066;13.768;2023-08-21T00:27:21;4.77;;;4.37;;
19739;SDS011;10027;51.066;13.768;2023-08-21T00:29:48;6.70;;;4.90;;
19739;SDS011;10027;51.066;13.768;2023-08-21T00:32:15;5.13;;;4.63;;
19739;SDS011;10027;51.066;13.768;2023-08-21T00:34:42;5.67;;;5.07;;
19739;SDS011;10027;51.066;13.768;2023-08-21T00:37:09;5.70;;;5.10;;
19739;SDS011;10027;51.066;13.768;2023-08-21T00:39:37;6.23;;;5.00;;
19739;SDS011;10027;51.066;13.768;2023-08-21T00:42:04;6.57;;;4.80;;
19739;SDS011;10027;51.066;13.768;2023-08-21T00:44:33;5.90;;;5.10;;
19739;SDS011;10027;51.066;13.768;2023-08-21T00:47:00;7.97;;;4.70;;
19739;SDS011;10027;51.066;13.768;2023-08-21T00:49:27;4.93;;;4.47;;
19739;SDS011;10027;51.066;13.768;2023-08-21T00:51:55;5.23;;;4.47;;
19739;SDS011;10027;51.066;13.768;2023-08-21T00:54:22;5.53;;;4.70;;
19739;SDS011;10027;51.066;13.768;2023-08-21T00:56:50;6.10;;;4.60;;
19739;SDS011;10027;51.066;13.768;2023-08-21T00:59:19;5.67;;;4.90;;
19739;SDS011;10027;51.066;13.768;2023-08-21T01:01:46;5.57;;;5.03;;
19739;SDS011;10027;51.066;13.768;2023-08-21T01:04:14;5.80;;;5.20;;
19739;SDS011;10027;51.066;13.768;2023-08-21T01:06:41;5.10;;;4.60;;
19739;SDS011;10027;51.066;13.768;2023-08-21T01:09:09;6.03;;;5.00;;
19739;SDS011;10027;51.066;13.768;2023-08-21T01:11:42;5.40;;;4.90;;
19739;SDS011;10027;51.066;13.768;2023-08-21T01:16:39;5.80;;;4.57;;
19739;SDS011;10027;51.066;13.768;2023-08-21T01:19:10;7.60;;;4.70;;
19739;SDS011;10027;51.066;13.768;2023-08-21T01:21:41;5.17;;;4.50;;
19739;SDS011;10027;51.066;13.768;2023-08-21T01:24:08;5.27;;;4.70;;
19739;SDS011;10027;51.066;13.768;2023-08-21T01:26:35;5.67;;;5.03;;
19739;SDS011;10027;51.066;13.768;2023-08-21T01:29:03;5.53;;;4.60;;
19739;SDS011;10027;51.066;13.768;2023-08-21T01:31:31;5.17;;;4.67;;
19739;SDS011;10027;51.066;13.768;2023-08-21T01:34:00;6.33;;;4.87;;
19739;SDS011;10027;51.066;13.768;2023-08-21T01:36:29;4.70;;;4.30;;
19739;SDS011;10027;51.066;13.768;2023-08-21T01:38:56;6.20;;;4.57;;
19739;SDS011;10027;51.066;13.768;2023-08-21T01:41:23;5.13;;;4.63;;
19739;SDS011;10027;51.066;13.768;2023-08-21T01:43:51;9.07;;;4.53;;
19739;SDS011;10027;51.066;13.768;2023-08-21T01:46:18;6.57;;;4.40;;
19739;SDS011;10027;51.066;13.768;2023-08-21T01:48:45;4.80;;;4.30;;
19739;SDS011;10027;51.066;13.768;2023-08-21T01:51:13;5.87;;;4.57;;
19739;SDS011;10027;51.066;13.768;2023-08-21T01:53:40;4.53;;;4.13;;
19739;SDS011;10027;51.066;13.768;2023-08-21T01:56:07;4.10;;;3.70;;
19739;SDS011;10027;51.066;13.768;2023-08-21T01:58:35;4.40;;;4.00;;
19739;SDS011;10027;51.066;13.768;2023-08-21T02:01:02;9.30;;;4.00;;
19739;SDS011;10027;51.066;13.768;2023-08-21T02:03:31;4.90;;;4.47;;
19739;SDS011;10027;51.066;13.768;2023-08-21T02:05:58;4.73;;;3.93;;
19739;SDS011;10027;51.066;13.768;2023-08-21T02:08:32;4.60;;;4.20;;
19739;SDS011;10027;51.066;13.768;2023-08-21T02:11:00;4.70;;;4.30;;
19739;SDS011;10027;51.066;13.768;2023-08-21T02:13:27;5.27;;;4.13;;
19739;SDS011;10027;51.066;13.768;2023-08-21T02:15:54;6.43;;;4.37;;
19739;SDS011;10027;51.066;13.768;2023-08-21T02:18:22;10.40;;;4.60;;
19739;SDS011;10027;51.066;13.768;2023-08-21T02:20:49;4.40;;;4.00;;
19739;SDS011;10027;51.066;13.768;2023-08-21T02:23:16;6.17;;;4.07;;
19739;SDS011;10027;51.066;13.768;2023-08-21T02:25:43;5.17;;;4.67;;
19739;SDS011;10027;51.066;13.768;2023-08-21T02:28:10;5.57;;;4.40;;
19739;SDS011;10027;51.066;13.768;2023-08-21T02:30:40;6.90;;;4.80;;
19739;SDS011;10027;51.066;13.768;2023-08-21T02:33:08;5.17;;;4.20;;
19739;SDS011;10027;51.066;13.768;2023-08-21T02:35:35;5.50;;;4.27;;
19739;SDS011;10027;51.066;13.768;2023-08-21T02:38:02;4.70;;;4.30;;
19739;SDS011;10027;51.066;13.768;2023-08-21T02:40:30;4.47;;;4.07;;
19739;SDS011;10027;51.066;13.768;2023-08-21T02:42:57;5.03;;;4.40;;
19739;SDS011;10027;51.066;13.768;2023-08-21T02:45:24;4.63;;;4.03;;
19739;SDS011;10027;51.066;13.768;2023-08-21T02:47:52;4.17;;;3.87;;
19739;SDS011;10027;51.066;13.768;2023-08-21T02:50:19;4.73;;;4.30;;
19739;SDS011;10027;51.066;13.768;2023-08-21T02:52:46;4.53;;;4.00;;
19739;SDS011;10027;51.066;13.768;2023-08-21T02:55:13;5.70;;;4.30;;
19739;SDS011;10027;51.066;13.768;2023-08-21T02:57:41;4.37;;;3.97;;
19739;SDS011;10027;51.066;13.768;2023-08-21T03:00:09;5.83;;;4.30;;
19739;SDS011;10027;51.066;13.768;2023-08-21T03:02:38;6.93;;;4.50;;
19739;SDS011;10027;51.066;13.768;2023-08-21T03:05:10;4.33;;;3.90;;
19739;SDS011;10027;51.066;13.768;2023-08-21T03:07:37;5.23;;;4.33;;
19739;SDS011;10027;51.066;13.768;2023-08-21T03:10:06;4.90;;;4.10;;
19739;SDS011;10027;51.066;13.768;2023-08-21T03:12:33;5.17;;;4.07;;
19739;SDS011;10027;51.066;13.768;2023-08-21T03:15:00;4.80;;;4.30;;
19739;SDS011;10027;51.066;13.768;2023-08-21T03:17:27;5.07;;;4.27;;
19739;SDS011;10027;51.066;13.768;2023-08-21T03:19:55;6.67;;;4.43;;
19739;SDS011;10027;51.066;13.768;2023-08-21T03:22:22;6.03;;;4.70;;
19739;SDS011;10027;51.066;13.768;2023-08-21T03:24:49;6.93;;;3.90;;
19739;SDS011;10027;51.066;13.768;2023-08-21T03:27:16;4.43;;;3.90;;
19739;SDS011;10027;51.066;13.768;2023-08-21T03:29:43;5.63;;;3.90;;
19739;SDS011;10027;51.066;13.768;2023-08-21T03:32:15;4.83;;;4.10;;
19739;SDS011;10027;51.066;13.768;2023-08-21T03:34:42;6.27;;;3.90;;
19739;SDS011;10027;51.066;13.768;2023-08-21T03:37:10;4.97;;;4.00;;
19739;SDS011;10027;51.066;13.768;2023-08-21T03:39:38;6.00;;;4.00;;
19739;SDS011;10027;51.066;13.768;2023-08-21T03:42:06;3.83;;;3.47;;
19739;SDS011;10027;51.066;13.768;2023-08-21T03:44:33;5.23;;;4.37;;
19739;SDS011;10027;51.066;13.768;2023-08-21T03:47:00;4.13;;;3.73;;
19739;SDS011;10027;51.066;13.768;2023-08-21T03:49:27;4.30;;;3.90;;
19739;SDS011;10027;51.066;13.768;2023-08-21T03:51:54;5.60;;;4.90;;
19739;SDS011;10027;51.066;13.768;2023-08-21T03:54:22;4.70;;;4.03;;
19739;SDS011;10027;51.066;13.768;2023-08-21T03:56:49;6.93;;;4.47;;
19739;SDS011;10027;51.066;13.768;2023-08-21T03:59:16;4.90;;;4.40;;
19739;SDS011;10027;51.066;13.768;2023-08-21T04:01:43;6.03;;;4.10;;
19739;SDS011;10027;51.066;13.768;2023-08-21T04:04:11;5.60;;;4.00;;
19739;SDS011;10027;51.066;13.768;2023-08-21T04:06:38;5.00;;;4.10;;
19739;SDS011;10027;51.066;13.768;2023-08-21T04:09:06;6.43;;;4.40;;
19739;SDS011;10027;51.066;13.768;2023-08-21T04:11:33;4.97;;;4.20;;
19739;SDS011;10027;51.066;13.768;2023-08-21T04:14:03;6.57;;;4.40;;
19739;SDS011;10027;51.066;13.768;2023-08-21T04:16:31;4.63;;;4.10;;
19739;SDS011;10027;51.066;13.768;2023-08-21T04:18:58;5.77;;;4.70;;
19739;SDS011;10027;51.066;13.768;2023-08-21T04:21:25;6.83;;;4.50;;
19739;SDS011;10027;51.066;13.768;2023-08-21T04:23:52;4.50;;;4.10;;
19739;SDS011;10027;51.066;13.768;2023-08-21T04:26:20;6.40;;;4.73;;
19739;SDS011;10027;51.066;13.768;2023-08-21T04:28:47;5.97;;;5.17;;
19739;SDS011;10027;51.066;13.768;2023-08-21T04:31:14;8.23;;;4.60;;
19739;SDS011;10027;51.066;13.768;2023-08-21T04:33:42;4.83;;;4.17;;
19739;SDS011;10027;51.066;13.768;2023-08-21T04:36:14;5.13;;;4.63;;
19739;SDS011;10027;51.066;13.768;2023-08-21T04:38:42;6.83;;;4.50;;
19739;SDS011;10027;51.066;13.768;2023-08-21T04:41:09;6.47;;;4.17;;
19739;SDS011;10027;51.066;13.768;2023-08-21T04:43:36;5.33;;;4.30;;
19739;SDS011;10027;51.066;13.768;2023-08-21T04:46:04;5.43;;;4.13;;
19739;SDS011;10027;51.066;13.768;2023-08-21T04:48:35;5.00;;;4.50;;
19739;SDS011;10027;51.066;13.768;2023-08-21T04:51:02;6.00;;;4.20;;
19739;SDS011;10027;51.066;13.768;2023-08-21T04:53:29;6.00;;;4.30;;
19739;SDS011;10027;51.066;13.768;2023-08-21T04:55:58;7.97;;;4.87;;
19739;SDS011;10027;51.066;13.768;2023-08-21T04:58:26;5.40;;;4.13;;
19739;SDS011;10027;51.066;13.768;2023-08-21T05:00:53;5.17;;;4.33;;
19739;SDS011;10027;51.066;13.768;2023-08-21T05:03:20;6.30;;;4.60;;
19739;SDS011;10027;51.066;13.768;2023-08-21T05:05:54;6.07;;;4.23;;
19739;SDS011;10027;51.066;13.768;2023-08-21T05:08:23;7.20;;;4.47;;
19739;SDS011;10027;51.066;13.768;2023-08-21T05:10:54;7.33;;;4.60;;
19739;SDS011;10027;51.066;13.768;2023-08-21T05:13:22;4.83;;;4.10;;
19739;SDS011;10027;51.066;13.768;2023-08-21T05:15:56;8.33;;;4.87;;
19739;SDS011;10027;51.066;13.768;2023-08-21T05:18:24;6.53;;;4.77;;
19739;SDS011;10027;51.066;13.768;2023-08-21T05:20:54;7.20;;;4.67;;
19739;SDS011;10027;51.066;13.768;2023-08-21T05:23:22;5.87;;;4.70;;
19739;SDS011;10027;51.066;13.768;2023-08-21T05:25:49;7.67;;;4.93;;
19739;SDS011;10027;51.066;13.768;2023-08-21T05:28:16;5.63;;;5.10;;
19739;SDS011;10027;51.066;13.768;2023-08-21T05:30:43;6.10;;;4.80;;
19739;SDS011;10027;51.066;13.768;2023-08-21T05:33:13;6.63;;;4.90;;
19739;SDS011;10027;51.066;13.768;2023-08-21T05:35:40;8.60;;;5.10;;
19739;SDS011;10027;51.066;13.768;2023-08-21T05:38:08;5.73;;;5.10;;
19739;SDS011;10027;51.066;13.768;2023-08-21T05:40:35;5.17;;;4.67;;
19739;SDS011;10027;51.066;13.768;2023-08-21T05:43:02;5.80;;;5.00;;
19739;SDS011;10027;51.066;13.768;2023-08-21T05:45:30;5.77;;;4.80;;
19739;SDS011;10027;51.066;13.768;2023-08-21T05:47:58;6.00;;;5.40;;
19739;SDS011;10027;51.066;13.768;2023-08-21T05:50:25;6.93;;;5.07;;
19739;SDS011;10027;51.066;13.768;2023-08-21T05:52:52;6.13;;;5.40;;
19739;SDS011;10027;51.066;13.768;2023-08-21T05:55:21;7.23;;;6.30;;
19739;SDS011;10027;51.066;13.768;2023-08-21T05:57:48;6.07;;;5.57;;
19739;SDS011;10027;51.066;13.768;2023-08-21T06:00:15;7.27;;;6.00;;
19739;SDS011;10027;51.066;13.768;2023-08-21T06:02:43;7.73;;;5.70;;
19739;SDS011;10027;51.066;13.768;2023-08-21T06:05:10;7.00;;;5.80;;
19739;SDS011;10027;51.066;13.768;2023-08-21T06:07:37;7.57;;;5.90;;
19739;SDS011;10027;51.066;13.768;2023-08-21T06:10:07;6.37;;;5.77;;
19739;SDS011;10027;51.066;13.768;2023-08-21T06:12:34;6.63;;;6.00;;
19739;SDS011;10027;51.066;13.768;2023-08-21T06:15:02;10.48;;;5.75;;
19739;SDS011;10027;51.066;13.768;2023-08-21T06:17:29;8.77;;;6.30;;
19739;SDS011;10027;51.066;13.768;2023-08-21T06:19:56;8.35;;;6.10;;
19739;SDS011;10027;51.066;13.768;2023-08-21T06:22:23;6.97;;;6.28;;
19739;SDS011;10027;51.066;13.768;2023-08-21T06:24:50;7.25;;;6.55;;
19739;SDS011;10027;51.066;13.768;2023-08-21T06:27:17;9.75;;;6.70;;
19739;SDS011;10027;51.066;13.768;2023-08-21T06:29:44;7.30;;;6.50;;
19739;SDS011;10027;51.066;13.768;2023-08-21T06:32:12;7.72;;;6.65;;
19739;SDS011;10027;51.066;13.768;2023-08-21T06:34:39;8.30;;;7.07;;
19739;SDS011;10027;51.066;13.768;2023-08-21T06:37:06;7.03;;;6.30;;
19739;SDS011;10027;51.066;13.768;2023-08-21T06:39:34;7.53;;;6.20;;
19739;SDS011;10027;51.066;13.768;2023-08-21T06:42:01;7.32;;;6.63;;
19739;SDS011;10027;51.066;13.768;2023-08-21T06:44:28;7.65;;;6.80;;
19739;SDS011;10027;51.066;13.768;2023-08-21T06:46:55;7.05;;;6.45;;
19739;SDS011;10027;51.066;13.768;2023-08-21T06:49:23;7.57;;;6.78;;
19739;SDS011;10027;51.066;13.768;2023-08-21T06:51:50;6.55;;;5.95;;
19739;SDS011;10027;51.066;13.768;2023-08-21T06:54:17;7.70;;;6.95;;
19739;SDS011;10027;51.066;13.768;2023-08-21T06:56:44;7.50;;;6.90;;
19739;SDS011;10027;51.066;13.768;2023-08-21T06:59:11;7.55;;;6.75;;
19739;SDS011;10027;51.066;13.768;2023-08-21T07:01:39;7.47;;;6.70;;
19739;SDS011;10027;51.066;13.768;2023-08-21T07:04:06;7.70;;;6.82;;
19739;SDS011;10027;51.066;13.768;2023-08-21T07:06:33;7.30;;;6.65;;
19739;SDS011;10027;51.066;13.768;2023-08-21T07:09:01;10.13;;;6.10;;
19739;SDS011;10027;51.066;13.768;2023-08-21T07:11:28;9.32;;;6.28;;
19739;SDS011;10027;51.066;13.768;2023-08-21T07:13:55;7.70;;;6.15;;
19739;SDS011;10027;51.066;13.768;2023-08-21T07:16:23;7.00;;;6.30;;
19739;SDS011;10027;51.066;13.768;2023-08-21T07:18:50;6.40;;;5.80;;
19739;SDS011;10027;51.066;13.768;2023-08-21T07:21:18;6.15;;;5.65;;
19739;SDS011;10027;51.066;13.768;2023-08-21T07:23:58;11.43;;;6.15;;
19739;SDS011;10027;51.066;13.768;2023-08-21T07:26:26;6.78;;;6.18;;
19739;SDS011;10027;51.066;13.768;2023-08-21T07:28:55;7.40;;;6.72;;
19739;SDS011;10027;51.066;13.768;2023-08-21T07:31:22;6.90;;;6.20;;
19739;SDS011;10027;51.066;13.768;2023-08-21T07:33:49;7.28;;;6.57;;
19739;SDS011;10027;51.066;13.768;2023-08-21T07:36:17;7.45;;;6.47;;
19739;SDS011;10027;51.066;13.768;2023-08-21T07:38:44;7.63;;;6.25;;
19739;SDS011;10027;51.066;13.768;2023-08-21T07:41:12;8.57;;;6.60;;
19739;SDS011;10027;51.066;13.768;2023-08-21T07:43:40;6.95;;;6.03;;
19739;SDS011;10027;51.066;13.768;2023-08-21T07:46:09;6.43;;;5.80;;
19739;SDS011;10027;51.066;13.768;2023-08-21T07:48:42;6.68;;;6.07;;
19739;SDS011;10027;51.066;13.768;2023-08-21T07:51:10;6.97;;;6.28;;
19739;SDS011;10027;51.066;13.768;2023-08-21T07:53:37;6.60;;;5.97;;
19739;SDS011;10027;51.066;13.768;2023-08-21T07:56:07;6.88;;;6.13;;
19739;SDS011;10027;51.066;13.768;2023-08-21T07:58:34;7.20;;;6.53;;
19739;SDS011;10027;51.066;13.768;2023-08-21T08:01:01;6.32;;;5.82;;
19739;SDS011;10027;51.066;13.768;2023-08-21T08:03:31;6.82;;;6.25;;
19739;SDS011;10027;51.066;13.768;2023-08-21T08:05:59;6.65;;;6.05;;
19739;SDS011;10027;51.066;13.768;2023-08-21T08:08:26;7.32;;;6.63;;
19739;SDS011;10027;51.066;13.768;2023-08-21T08:10:55;6.80;;;6.18;;
19739;SDS011;10027;51.066;13.768;2023-08-21T08:13:22;7.38;;;6.70;;
19739;SDS011;10027;51.066;13.768;2023-08-21T08:15:49;6.97;;;6.38;;
19739;SDS011;10027;51.066;13.768;2023-08-21T08:18:17;8.13;;;6.40;;
19739;SDS011;10027;51.066;13.768;2023-08-21T08:20:44;7.35;;;6.45;;
19739;SDS011;10027;51.066;13.768;2023-08-21T08:23:11;7.03;;;6.30;;
19739;SDS011;10027;51.066;13.768;2023-08-21T08:25:39;7.05;;;6.35;;
19739;SDS011;10027;51.066;13.768;2023-08-21T08:28:06;7.70;;;6.90;;
19739;SDS011;10027;51.066;13.768;2023-08-21T08:30:33;7.32;;;6.63;;
19739;SDS011;10027;51.066;13.768;2023-08-21T08:33:01;7.65;;;6.95;;
19739;SDS011;10027;51.066;13.768;2023-08-21T08:35:28;8.45;;;7.45;;
19739;SDS011;10027;51.066;13.768;2023-08-21T08:37:55;7.50;;;6.78;;
19739;SDS011;10027;51.066;13.768;2023-08-21T08:40:22;7.10;;;6.45;;
19739;SDS011;10027;51.066;13.768;2023-08-21T08:42:50;7.72;;;7.05;;
19739;SDS011;10027;51.066;13.768;2023-08-21T08:45:17;7.47;;;6.63;;
19739;SDS011;10027;51.066;13.768;2023-08-21T08:47:48;6.85;;;6.25;;
19739;SDS011;10027;51.066;13.768;2023-08-21T08:50:16;7.18;;;6.45;;
19739;SDS011;10027;51.066;13.768;2023-08-21T08:52:43;7.18;;;6.47;;
19739;SDS011;10027;51.066;13.768;2023-08-21T08:55:11;7.25;;;6.65;;
19739;SDS011;10027;51.066;13.768;2023-08-21T08:57:38;7.93;;;7.22;;
19739;SDS011;10027;51.066;13.768;2023-08-21T09:00:06;6.97;;;6.38;;
19739;SDS011;10027;51.066;13.768;2023-08-21T09:02:33;6.75;;;6.15;;
19739;SDS011;10027;51.066;13.768;2023-08-21T09:05:01;6.70;;;5.90;;
19739;SDS011;10027;51.066;13.768;2023-08-21T09:07:28;7.15;;;6.55;;
19739;SDS011;10027;51.066;13.768;2023-08-21T09:09:55;7.25;;;6.40;;
19739;SDS011;10027;51.066;13.768;2023-08-21T09:12:22;6.88;;;6.28;;
19739;SDS011;10027;51.066;13.768;2023-08-21T09:14:49;7.03;;;6.43;;
19739;SDS011;10027;51.066;13.768;2023-08-21T09:17:17;7.55;;;6.85;;
19739;SDS011;10027;51.066;13.768;2023-08-21T09:19:44;6.97;;;6.35;;
19739;SDS011;10027;51.066;13.768;2023-08-21T09:22:12;7.40;;;6.70;;
19739;SDS011;10027;51.066;13.768;2023-08-21T09:24:40;7.07;;;6.47;;
19739;SDS011;10027;51.066;13.768;2023-08-21T09:27:13;6.80;;;6.07;;
19739;SDS011;10027;51.066;13.768;2023-08-21T09:29:42;7.50;;;6.30;;
19739;SDS011;10027;51.066;13.768;2023-08-21T09:32:09;6.63;;;6.03;;
19739;SDS011;10027;51.066;13.768;2023-08-21T09:34:37;7.25;;;6.60;;
19739;SDS011;10027;51.066;13.768;2023-08-21T09:37:05;6.65;;;6.05;;
19739;SDS011;10027;51.066;13.768;2023-08-21T09:39:34;7.25;;;6.20;;
19739;SDS011;10027;51.066;13.768;2023-08-21T09:42:04;6.45;;;5.88;;
19739;SDS011;10027;51.066;13.768;2023-08-21T09:44:39;6.75;;;5.95;;
19739;SDS011;10027;51.066;13.768;2023-08-21T09:47:09;6.72;;;5.50;;
19739;SDS011;10027;51.066;13.768;2023-08-21T09:49:38;6.20;;;5.70;;
19739;SDS011;10027;51.066;13.768;2023-08-21T09:52:06;5.53;;;5.00;;
19739;SDS011;10027;51.066;13.768;2023-08-21T09:54:33;5.45;;;4.95;;
19739;SDS011;10027;51.066;13.768;2023-08-21T09:57:01;5.30;;;4.80;;
19739;SDS011;10027;51.066;13.768;2023-08-21T09:59:32;5.35;;;4.85;;
19739;SDS011;10027;51.066;13.768;2023-08-21T10:02:00;7.45;;;4.90;;
19739;SDS011;10027;51.066;13.768;2023-08-21T10:04:28;6.10;;;5.20;;
19739;SDS011;10027;51.066;13.768;2023-08-21T10:06:56;5.68;;;5.07;;
19739;SDS011;10027;51.066;13.768;2023-08-21T10:09:24;5.28;;;4.78;;
19739;SDS011;10027;51.066;13.768;2023-08-21T10:11:54;5.30;;;4.80;;
19739;SDS011;10027;51.066;13.768;2023-08-21T10:14:22;5.03;;;4.53;;
19739;SDS011;10027;51.066;13.768;2023-08-21T10:16:51;4.90;;;4.45;;
19739;SDS011;10027;51.066;13.768;2023-08-21T10:19:20;5.10;;;4.60;;
19739;SDS011;10027;51.066;13.768;2023-08-21T10:21:47;5.53;;;5.03;;
19739;SDS011;10027;51.066;13.768;2023-08-21T10:24:28;7.53;;;4.35;;
19739;SDS011;10027;51.066;13.768;2023-08-21T10:26:59;4.70;;;4.30;;
19739;SDS011;10027;51.066;13.768;2023-08-21T10:29:26;5.07;;;4.50;;
19739;SDS011;10027;51.066;13.768;2023-08-21T10:32:00;4.85;;;4.28;;
19739;SDS011;10027;51.066;13.768;2023-08-21T10:34:35;5.25;;;4.55;;
19739;SDS011;10027;51.066;13.768;2023-08-21T10:37:10;4.60;;;4.20;;
19739;SDS011;10027;51.066;13.768;2023-08-21T10:39:53;5.03;;;3.92;;
19739;SDS011;10027;51.066;13.768;2023-08-21T10:42:36;4.93;;;4.43;;
19739;SDS011;10027;51.066;13.768;2023-08-21T10:45:11;4.47;;;4.07;;
19739;SDS011;10027;51.066;13.768;2023-08-21T10:47:38;4.70;;;4.30;;
19739;SDS011;10027;51.066;13.768;2023-08-21T10:50:07;5.10;;;4.70;;
19739;SDS011;10027;51.066;13.768;2023-08-21T10:55:02;4.90;;;4.40;;
19739;SDS011;10027;51.066;13.768;2023-08-21T10:57:30;4.68;;;4.28;;
19739;SDS011;10027;51.066;13.768;2023-08-21T11:00:02;4.80;;;4.40;;
19739;SDS011;10027;51.066;13.768;2023-08-21T11:02:31;4.88;;;4.30;;
19739;SDS011;10027;51.066;13.768;2023-08-21T11:04:59;6.35;;;4.50;;
19739;SDS011;10027;51.066;13.768;2023-08-21T11:07:27;4.47;;;4.07;;
19739;SDS011;10027;51.066;13.768;2023-08-21T11:09:55;4.97;;;4.25;;
19739;SDS011;10027;51.066;13.768;2023-08-21T11:12:23;5.10;;;4.60;;
19739;SDS011;10027;51.066;13.768;2023-08-21T11:14:50;5.00;;;4.57;;
19739;SDS011;10027;51.066;13.768;2023-08-21T11:17:18;6.80;;;4.70;;
19739;SDS011;10027;51.066;13.768;2023-08-21T11:19:45;4.80;;;4.40;;
19739;SDS011;10027;51.066;13.768;2023-08-21T11:22:14;5.63;;;4.60;;
19739;SDS011;10027;51.066;13.768;2023-08-21T11:27:09;5.10;;;4.60;;
19739;SDS011;10027;51.066;13.768;2023-08-21T11:29:44;6.40;;;4.95;;
19739;SDS011;10027;51.066;13.768;2023-08-21T11:32:13;5.03;;;4.60;;
19739;SDS011;10027;51.066;13.768;2023-08-21T11:34:41;5.38;;;4.60;;
19739;SDS011;10027;51.066;13.768;2023-08-21T11:37:08;5.10;;;4.35;;
19739;SDS011;10027;51.066;13.768;2023-08-21T11:39:46;4.50;;;4.10;;
19739;SDS011;10027;51.066;13.768;2023-08-21T11:42:14;5.05;;;4.53;;
19739;SDS011;10027;51.066;13.768;2023-08-21T11:44:42;4.82;;;4.32;;
19739;SDS011;10027;51.066;13.768;2023-08-21T11:47:10;7.00;;;5.20;;
19739;SDS011;10027;51.066;13.768;2023-08-21T11:49:40;5.25;;;4.45;;
19739;SDS011;10027;51.066;13.768;2023-08-21T11:52:09;6.90;;;4.70;;
19739;SDS011;10027;51.066;13.768;2023-08-21T11:54:37;5.78;;;5.10;;
19739;SDS011;10027;51.066;13.768;2023-08-21T11:57:16;5.60;;;4.97;;
19739;SDS011;10027;51.066;13.768;2023-08-21T11:59:48;5.60;;;5.03;;
19739;SDS011;10027;51.066;13.768;2023-08-21T12:02:17;5.25;;;4.80;;
19739;SDS011;10027;51.066;13.768;2023-08-21T12:04:44;5.72;;;5.15;;
19739;SDS011;10027;51.066;13.768;2023-08-21T12:07:12;5.85;;;5.28;;
19739;SDS011;10027;51.066;13.768;2023-08-21T12:09:39;6.43;;;4.70;;
19739;SDS011;10027;51.066;13.768;2023-08-21T12:12:07;6.55;;;4.97;;
19739;SDS011;10027;51.066;13.768;2023-08-21T12:14:34;5.70;;;4.90;;
19739;SDS011;10027;51.066;13.768;2023-08-21T12:17:05;6.40;;;5.05;;
19739;SDS011;10027;51.066;13.768;2023-08-21T12:19:33;5.18;;;4.78;;
19739;SDS011;10027;51.066;13.768;2023-08-21T12:22:00;5.88;;;5.18;;
19739;SDS011;10027;51.066;13.768;2023-08-21T12:24:28;5.35;;;4.85;;
19739;SDS011;10027;51.066;13.768;2023-08-21T12:26:55;6.53;;;5.35;;
19739;SDS011;10027;51.066;13.768;2023-08-21T12:29:22;5.85;;;5.25;;
19739;SDS011;10027;51.066;13.768;2023-08-21T12:31:50;5.88;;;5.38;;
19739;SDS011;10027;51.066;13.768;2023-08-21T12:34:17;6.57;;;5.30;;
19739;SDS011;10027;51.066;13.768;2023-08-21T12:36:45;5.97;;;5.38;;
19739;SDS011;10027;51.066;13.768;2023-08-21T12:39:12;8.77;;;5.10;;
19739;SDS011;10027;51.066;13.768;2023-08-21T12:41:42;6.88;;;5.55;;
19739;SDS011;10027;51.066;13.768;2023-08-21T12:44:09;6.63;;;5.35;;
19739;SDS011;10027;51.066;13.768;2023-08-21T12:46:36;5.60;;;5.03;;
19739;SDS011;10027;51.066;13.768;2023-08-21T12:49:04;6.15;;;5.55;;
19739;SDS011;10027;51.066;13.768;2023-08-21T12:51:31;7.18;;;5.10;;
19739;SDS011;10027;51.066;13.768;2023-08-21T12:53:58;6.60;;;5.18;;
19739;SDS011;10027;51.066;13.768;2023-08-21T12:56:26;5.05;;;4.65;;
19739;SDS011;10027;51.066;13.768;2023-08-21T12:58:53;8.00;;;4.93;;
19739;SDS011;10027;51.066;13.768;2023-08-21T13:01:20;5.55;;;4.95;;
19739;SDS011;10027;51.066;13.768;2023-08-21T13:03:47;5.55;;;5.03;;
19739;SDS011;10027;51.066;13.768;2023-08-21T13:06:15;5.22;;;4.72;;
19739;SDS011;10027;51.066;13.768;2023-08-21T13:08:42;5.57;;;5.00;;
19739;SDS011;10027;51.066;13.768;2023-08-21T13:11:09;5.95;;;4.88;;
19739;SDS011;10027;51.066;13.768;2023-08-21T13:13:36;5.75;;;4.82;;
19739;SDS011;10027;51.066;13.768;2023-08-21T13:16:03;5.50;;;5.00;;
19739;SDS011;10027;51.066;13.768;2023-08-21T13:18:31;5.00;;;4.60;;
19739;SDS011;10027;51.066;13.768;2023-08-21T13:20:58;5.20;;;4.60;;
19739;SDS011;10027;51.066;13.768;2023-08-21T13:23:25;6.97;;;5.10;;
19739;SDS011;10027;51.066;13.768;2023-08-21T13:25:53;6.03;;;4.90;;
19739;SDS011;10027;51.066;13.768;2023-08-21T13:28:20;5.07;;;4.45;;
19739;SDS011;10027;51.066;13.768;2023-08-21T13:30:47;5.32;;;4.82;;
19739;SDS011;10027;51.066;13.768;2023-08-21T13:33:15;5.38;;;4.88;;
19739;SDS011;10027;51.066;13.768;2023-08-21T13:35:44;5.82;;;4.60;;
19739;SDS011;10027;51.066;13.768;2023-08-21T13:38:14;5.65;;;5.10;;
19739;SDS011;10027;51.066;13.768;2023-08-21T13:40:41;5.10;;;4.60;;
19739;SDS011;10027;51.066;13.768;2023-08-21T13:43:09;8.73;;;4.90;;
19739;SDS011;10027;51.066;13.768;2023-08-21T13:45:37;5.68;;;5.13;;
19739;SDS011;10027;51.066;13.768;2023-08-21T13:48:06;5.70;;;5.10;;
19739;SDS011;10027;51.066;13.768;2023-08-21T13:50:34;6.40;;;5.10;;
19739;SDS011;10027;51.066;13.768;2023-08-21T13:53:01;6.13;;;5.43;;
19739;SDS011;10027;51.066;13.768;2023-08-21T13:55:29;5.35;;;4.85;;
19739;SDS011;10027;51.066;13.768;2023-08-21T13:57:56;4.95;;;4.45;;
19739;SDS011;10027;51.066;13.768;2023-08-21T14:00:23;5.05;;;4.60;;
19739;SDS011;10027;51.066;13.768;2023-08-21T14:02:51;5.28;;;4.78;;
19739;SDS011;10027;51.066;13.768;2023-08-21T14:05:18;6.55;;;4.57;;
19739;SDS011;10027;51.066;13.768;2023-08-21T14:07:45;6.53;;;5.10;;
19739;SDS011;10027;51.066;13.768;2023-08-21T14:10:13;5.30;;;4.57;;
19739;SDS011;10027;51.066;13.768;2023-08-21T14:12:40;6.13;;;4.45;;
19739;SDS011;10027;51.066;13.768;2023-08-21T14:15:08;5.07;;;4.68;;
19739;SDS011;10027;51.066;13.768;2023-08-21T14:17:36;5.63;;;5.10;;
19739;SDS011;10027;51.066;13.768;2023-08-21T14:20:04;5.25;;;4.70;;
19739;SDS011;10027;51.066;13.768;2023-08-21T14:22:33;5.32;;;4.80;;
19739;SDS011;10027;51.066;13.768;2023-08-21T14:25:00;5.50;;;5.00;;
19739;SDS011;10027;51.066;13.768;2023-08-21T14:27:32;5.30;;;4.80;;
19739;SDS011;10027;51.066;13.768;2023-08-21T14:29:59;5.68;;;5.13;;
19739;SDS011;10027;51.066;13.768;2023-08-21T14:32:26;5.82;;;5.22;;
19739;SDS011;10027;51.066;13.768;2023-08-21T14:34:53;5.60;;;5.05;;
19739;SDS011;10027;51.066;13.768;2023-08-21T14:37:20;5.68;;;4.72;;
19739;SDS011;10027;51.066;13.768;2023-08-21T14:39:50;5.05;;;4.40;;
19739;SDS011;10027;51.066;13.768;2023-08-21T14:42:17;5.20;;;4.70;;
19739;SDS011;10027;51.066;13.768;2023-08-21T14:44:45;5.07;;;4.57;;